sensor_id;sensor_type;location;lat;lon;timestamp;P1;durP1;ratioP1;P2;durP2;ratioP2
54871;SDS011;43914;57.680;11.982;2023-11-21T00:00:37;11.40;;;5.90;;
54871;SDS011;43914;57.680;11.982;2023-11-21T00:03:02;12.20;;;6.10;;
54871;SDS011;43914;57.680;11.982;2023-11-21T00:05:29;11.20;;;5.50;;
54871;SDS011;43914;57.680;11.982;2023-11-21T00:07:55;12.00;;;6.20;;
54871;SDS011;43914;57.680;11.982;2023-11-21T00:10:20;11.60;;;5.70;;
54871;SDS011;43914;57.680;11.982;2023-11-21T00:12:46;14.40;;;7.20;;
54871;SDS011;43914;57.680;11.982;2023-11-21T00:15:13;11.50;;;6.20;;
54871;SDS011;43914;57.680;11.982;2023-11-21T00:17:39;12.60;;;6.50;;
54871;SDS011;43914;57.680;11.982;2023-11-21T00:20:08;12.40;;;5.80;;
54871;SDS011;43914;57.680;11.982;2023-11-21T00:22:37;12.90;;;6.90;;
54871;SDS011;43914;57.680;11.982;2023-11-21T00:25:03;13.60;;;7.70;;
54871;SDS011;43914;57.680;11.982;2023-11-21T00:27:29;12.90;;;6.40;;
54871;SDS011;43914;57.680;11.982;2023-11-21T00:29:55;12.90;;;7.00;;
54871;SDS011;43914;57.680;11.982;2023-11-21T00:32:21;12.80;;;6.40;;
54871;SDS011;43914;57.680;11.982;2023-11-21T00:34:46;11.80;;;6.40;;
54871;SDS011;43914;57.680;11.982;2023-11-21T00:37:12;14.00;;;6.90;;
54871;SDS011;43914;57.680;11.982;2023-11-21T00:39:37;12.20;;;6.50;;
54871;SDS011;43914;57.680;11.982;2023-11-21T00:42:03;13.70;;;6.80;;
54871;SDS011;43914;57.680;11.982;2023-11-21T00:44:30;13.70;;;6.30;;
54871;SDS011;43914;57.680;11.982;2023-11-21T00:46:55;12.80;;;6.50;;
54871;SDS011;43914;57.680;11.982;2023-11-21T00:49:21;12.50;;;6.10;;
54871;SDS011;43914;57.680;11.982;2023-11-21T00:51:46;16.10;;;7.60;;
54871;SDS011;43914;57.680;11.982;2023-11-21T00:54:12;12.80;;;6.90;;
54871;SDS011;43914;57.680;11.982;2023-11-21T00:56:37;13.50;;;6.90;;
54871;SDS011;43914;57.680;11.982;2023-11-21T00:59:03;11.10;;;5.70;;
54871;SDS011;43914;57.680;11.982;2023-11-21T01:01:30;12.20;;;6.40;;
54871;SDS011;43914;57.680;11.982;2023-11-21T01:03:55;11.80;;;6.70;;
54871;SDS011;43914;57.680;11.982;2023-11-21T01:06:21;12.30;;;6.70;;
54871;SDS011;43914;57.680;11.982;2023-11-21T01:08:47;13.80;;;7.20;;
54871;SDS011;43914;57.680;11.982;2023-11-21T01:11:12;15.20;;;7.30;;
54871;SDS011;43914;57.680;11.982;2023-11-21T01:13:38;13.10;;;6.80;;
54871;SDS011;43914;57.680;11.982;2023-11-21T01:16:05;14.00;;;7.20;;
54871;SDS011;43914;57.680;11.982;2023-11-21T01:18:31;13.20;;;6.70;;
54871;SDS011;43914;57.680;11.982;2023-11-21T01:20:57;13.10;;;6.70;;
54871;SDS011;43914;57.680;11.982;2023-11-21T01:23:24;11.30;;;5.80;;
54871;SDS011;43914;57.680;11.982;2023-11-21T01:25:50;13.50;;;7.40;;
54871;SDS011;43914;57.680;11.982;2023-11-21T01:28:16;11.40;;;6.40;;
54871;SDS011;43914;57.680;11.982;2023-11-21T01:30:42;12.90;;;6.70;;
54871;SDS011;43914;57.680;11.982;2023-11-21T01:33:07;11.90;;;6.30;;
54871;SDS011;43914;57.680;11.982;2023-11-21T01:35:34;13.60;;;7.50;;
54871;SDS011;43914;57.680;11.982;2023-11-21T01:37:59;14.40;;;7.40;;
54871;SDS011;43914;57.680;11.982;2023-11-21T01:40:25;12.70;;;7.20;;
54871;SDS011;43914;57.680;11.982;2023-11-21T01:42:50;12.10;;;6.90;;
54871;SDS011;43914;57.680;11.982;2023-11-21T01:45:16;15.60;;;8.80;;
54871;SDS011;43914;57.680;11.982;2023-11-21T01:47:42;14.40;;;8.20;;
54871;SDS011;43914;57.680;11.982;2023-11-21T01:50:10;15.70;;;7.40;;
54871;SDS011;43914;57.680;11.982;2023-11-21T01:52:42;12.70;;;6.90;;
54871;SDS011;43914;57.680;11.982;2023-11-21T01:55:10;15.30;;;8.20;;
54871;SDS011;43914;57.680;11.982;2023-11-21T01:57:37;12.70;;;7.00;;
54871;SDS011;43914;57.680;11.982;2023-11-21T02:00:03;13.80;;;7.50;;
54871;SDS011;43914;57.680;11.982;2023-11-21T02:02:43;15.30;;;8.30;;
54871;SDS011;43914;57.680;11.982;2023-11-21T02:05:15;13.30;;;7.30;;
54871;SDS011;43914;57.680;11.982;2023-11-21T02:07:46;14.30;;;7.20;;
54871;SDS011;43914;57.680;11.982;2023-11-21T02:10:13;14.10;;;8.20;;
54871;SDS011;43914;57.680;11.982;2023-11-21T02:12:42;14.00;;;7.40;;
54871;SDS011;43914;57.680;11.982;2023-11-21T02:15:12;14.10;;;7.40;;
54871;SDS011;43914;57.680;11.982;2023-11-21T02:17:45;13.10;;;7.70;;
54871;SDS011;43914;57.680;11.982;2023-11-21T02:20:17;12.90;;;7.20;;
54871;SDS011;43914;57.680;11.982;2023-11-21T02:22:53;15.10;;;7.30;;
54871;SDS011;43914;57.680;11.982;2023-11-21T02:25:29;13.70;;;7.80;;
54871;SDS011;43914;57.680;11.982;2023-11-21T02:27:57;14.00;;;7.50;;
54871;SDS011;43914;57.680;11.982;2023-11-21T02:30:25;14.30;;;7.50;;
54871;SDS011;43914;57.680;11.982;2023-11-21T02:32:52;12.80;;;7.20;;
54871;SDS011;43914;57.680;11.982;2023-11-21T02:35:19;12.40;;;7.00;;
54871;SDS011;43914;57.680;11.982;2023-11-21T02:37:48;13.80;;;7.70;;
54871;SDS011;43914;57.680;11.982;2023-11-21T02:40:17;15.20;;;8.10;;
54871;SDS011;43914;57.680;11.982;2023-11-21T02:42:49;13.40;;;6.60;;
54871;SDS011;43914;57.680;11.982;2023-11-21T02:45:16;12.40;;;6.60;;
54871;SDS011;43914;57.680;11.982;2023-11-21T02:47:43;16.00;;;8.10;;
54871;SDS011;43914;57.680;11.982;2023-11-21T02:50:09;14.40;;;8.00;;
54871;SDS011;43914;57.680;11.982;2023-11-21T02:52:34;14.90;;;8.20;;
54871;SDS011;43914;57.680;11.982;2023-11-21T02:55:03;13.30;;;6.50;;
54871;SDS011;43914;57.680;11.982;2023-11-21T02:57:29;14.40;;;7.90;;
54871;SDS011;43914;57.680;11.982;2023-11-21T02:59:55;13.50;;;7.20;;
54871;SDS011;43914;57.680;11.982;2023-11-21T03:02:21;13.20;;;7.00;;
54871;SDS011;43914;57.680;11.982;2023-11-21T03:04:47;12.20;;;6.50;;
54871;SDS011;43914;57.680;11.982;2023-11-21T03:07:16;13.50;;;7.20;;
54871;SDS011;43914;57.680;11.982;2023-11-21T03:09:42;13.00;;;7.30;;
54871;SDS011;43914;57.680;11.982;2023-11-21T03:12:09;14.10;;;7.40;;
54871;SDS011;43914;57.680;11.982;2023-11-21T03:14:37;12.90;;;6.70;;
54871;SDS011;43914;57.680;11.982;2023-11-21T03:17:03;13.00;;;6.80;;
54871;SDS011;43914;57.680;11.982;2023-11-21T03:19:30;11.80;;;6.20;;
54871;SDS011;43914;57.680;11.982;2023-11-21T03:21:55;13.10;;;6.80;;
54871;SDS011;43914;57.680;11.982;2023-11-21T03:24:24;13.80;;;7.00;;
54871;SDS011;43914;57.680;11.982;2023-11-21T03:26:51;15.50;;;6.70;;
54871;SDS011;43914;57.680;11.982;2023-11-21T03:29:17;15.90;;;7.50;;
54871;SDS011;43914;57.680;11.982;2023-11-21T03:31:42;13.20;;;6.60;;
54871;SDS011;43914;57.680;11.982;2023-11-21T03:34:10;13.80;;;7.90;;
54871;SDS011;43914;57.680;11.982;2023-11-21T03:36:40;12.80;;;7.20;;
54871;SDS011;43914;57.680;11.982;2023-11-21T03:39:06;14.00;;;7.30;;
54871;SDS011;43914;57.680;11.982;2023-11-21T03:41:32;12.10;;;6.70;;
54871;SDS011;43914;57.680;11.982;2023-11-21T03:43:58;13.10;;;6.80;;
54871;SDS011;43914;57.680;11.982;2023-11-21T03:46:24;11.70;;;6.50;;
54871;SDS011;43914;57.680;11.982;2023-11-21T03:48:50;14.10;;;7.00;;
54871;SDS011;43914;57.680;11.982;2023-11-21T03:51:16;11.90;;;6.60;;
54871;SDS011;43914;57.680;11.982;2023-11-21T03:53:41;12.90;;;7.20;;
54871;SDS011;43914;57.680;11.982;2023-11-21T03:56:07;16.70;;;7.10;;
54871;SDS011;43914;57.680;11.982;2023-11-21T03:58:32;12.40;;;6.40;;
54871;SDS011;43914;57.680;11.982;2023-11-21T04:00:58;12.50;;;6.40;;
54871;SDS011;43914;57.680;11.982;2023-11-21T04:03:23;13.90;;;7.10;;
54871;SDS011;43914;57.680;11.982;2023-11-21T04:05:48;14.20;;;7.40;;
54871;SDS011;43914;57.680;11.982;2023-11-21T04:08:14;12.00;;;6.40;;
54871;SDS011;43914;57.680;11.982;2023-11-21T04:10:39;11.40;;;5.80;;
54871;SDS011;43914;57.680;11.982;2023-11-21T04:13:05;14.10;;;7.40;;
54871;SDS011;43914;57.680;11.982;2023-11-21T04:15:31;14.30;;;7.50;;
54871;SDS011;43914;57.680;11.982;2023-11-21T04:17:57;14.30;;;7.50;;
54871;SDS011;43914;57.680;11.982;2023-11-21T04:20:23;11.20;;;6.20;;
54871;SDS011;43914;57.680;11.982;2023-11-21T04:22:49;11.10;;;6.20;;
54871;SDS011;43914;57.680;11.982;2023-11-21T04:25:14;12.50;;;6.70;;
54871;SDS011;43914;57.680;11.982;2023-11-21T04:27:40;14.70;;;7.00;;
54871;SDS011;43914;57.680;11.982;2023-11-21T04:30:09;15.30;;;7.00;;
54871;SDS011;43914;57.680;11.982;2023-11-21T04:32:38;13.70;;;6.70;;
54871;SDS011;43914;57.680;11.982;2023-11-21T04:35:04;12.40;;;6.80;;
54871;SDS011;43914;57.680;11.982;2023-11-21T04:37:31;14.00;;;6.90;;
54871;SDS011;43914;57.680;11.982;2023-11-21T04:39:56;12.50;;;6.30;;
54871;SDS011;43914;57.680;11.982;2023-11-21T04:42:22;15.50;;;6.90;;
54871;SDS011;43914;57.680;11.982;2023-11-21T04:44:47;12.30;;;6.80;;
54871;SDS011;43914;57.680;11.982;2023-11-21T04:47:13;12.60;;;6.30;;
54871;SDS011;43914;57.680;11.982;2023-11-21T04:49:43;11.10;;;5.90;;
54871;SDS011;43914;57.680;11.982;2023-11-21T04:52:09;12.30;;;6.40;;
54871;SDS011;43914;57.680;11.982;2023-11-21T04:54:35;12.70;;;6.50;;
54871;SDS011;43914;57.680;11.982;2023-11-21T04:57:00;13.00;;;6.70;;
54871;SDS011;43914;57.680;11.982;2023-11-21T04:59:26;12.00;;;6.30;;
54871;SDS011;43914;57.680;11.982;2023-11-21T05:01:52;12.00;;;6.00;;
54871;SDS011;43914;57.680;11.982;2023-11-21T05:04:19;11.70;;;6.50;;
54871;SDS011;43914;57.680;11.982;2023-11-21T05:06:46;13.60;;;6.50;;
54871;SDS011;43914;57.680;11.982;2023-11-21T05:09:13;11.60;;;6.30;;
54871;SDS011;43914;57.680;11.982;2023-11-21T05:11:38;13.60;;;6.20;;
54871;SDS011;43914;57.680;11.982;2023-11-21T05:14:06;12.70;;;6.50;;
54871;SDS011;43914;57.680;11.982;2023-11-21T05:16:31;12.40;;;6.40;;
54871;SDS011;43914;57.680;11.982;2023-11-21T05:18:57;12.10;;;5.70;;
54871;SDS011;43914;57.680;11.982;2023-11-21T05:21:26;11.00;;;5.80;;
54871;SDS011;43914;57.680;11.982;2023-11-21T05:23:52;11.80;;;6.50;;
54871;SDS011;43914;57.680;11.982;2023-11-21T05:26:18;13.70;;;7.00;;
54871;SDS011;43914;57.680;11.982;2023-11-21T05:28:43;12.70;;;6.80;;
54871;SDS011;43914;57.680;11.982;2023-11-21T05:31:09;12.70;;;6.30;;
54871;SDS011;43914;57.680;11.982;2023-11-21T05:33:35;10.50;;;5.70;;
54871;SDS011;43914;57.680;11.982;2023-11-21T05:36:01;11.60;;;5.60;;
54871;SDS011;43914;57.680;11.982;2023-11-21T05:38:27;11.60;;;5.60;;
54871;SDS011;43914;57.680;11.982;2023-11-21T05:40:52;12.00;;;5.50;;
54871;SDS011;43914;57.680;11.982;2023-11-21T05:43:17;10.10;;;4.80;;
54871;SDS011;43914;57.680;11.982;2023-11-21T05:45:43;11.70;;;6.40;;
54871;SDS011;43914;57.680;11.982;2023-11-21T05:48:10;12.10;;;6.30;;
54871;SDS011;43914;57.680;11.982;2023-11-21T05:50:35;12.00;;;6.30;;
54871;SDS011;43914;57.680;11.982;2023-11-21T05:53:03;10.30;;;5.50;;
54871;SDS011;43914;57.680;11.982;2023-11-21T05:55:29;10.80;;;5.30;;
54871;SDS011;43914;57.680;11.982;2023-11-21T05:57:54;11.10;;;5.70;;
54871;SDS011;43914;57.680;11.982;2023-11-21T06:00:20;10.20;;;5.40;;
54871;SDS011;43914;57.680;11.982;2023-11-21T06:02:50;13.80;;;6.00;;
54871;SDS011;43914;57.680;11.982;2023-11-21T06:05:21;10.40;;;5.00;;
54871;SDS011;43914;57.680;11.982;2023-11-21T06:07:51;10.80;;;5.60;;
54871;SDS011;43914;57.680;11.982;2023-11-21T06:10:19;11.60;;;5.70;;
54871;SDS011;43914;57.680;11.982;2023-11-21T06:12:46;13.00;;;5.80;;
54871;SDS011;43914;57.680;11.982;2023-11-21T06:15:12;11.60;;;5.90;;
54871;SDS011;43914;57.680;11.982;2023-11-21T06:17:46;10.60;;;5.80;;
54871;SDS011;43914;57.680;11.982;2023-11-21T06:20:15;11.00;;;5.30;;
54871;SDS011;43914;57.680;11.982;2023-11-21T06:22:43;14.00;;;5.30;;
54871;SDS011;43914;57.680;11.982;2023-11-21T06:25:11;10.40;;;5.00;;
54871;SDS011;43914;57.680;11.982;2023-11-21T06:27:41;10.50;;;5.50;;
54871;SDS011;43914;57.680;11.982;2023-11-21T06:30:09;12.90;;;5.30;;
54871;SDS011;43914;57.680;11.982;2023-11-21T06:32:37;10.80;;;5.10;;
54871;SDS011;43914;57.680;11.982;2023-11-21T06:35:05;11.10;;;6.00;;
54871;SDS011;43914;57.680;11.982;2023-11-21T06:37:33;11.60;;;5.70;;
54871;SDS011;43914;57.680;11.982;2023-11-21T06:39:59;11.10;;;5.70;;
54871;SDS011;43914;57.680;11.982;2023-11-21T06:42:25;11.50;;;6.00;;
54871;SDS011;43914;57.680;11.982;2023-11-21T06:44:51;11.60;;;5.70;;
54871;SDS011;43914;57.680;11.982;2023-11-21T06:47:18;11.40;;;6.40;;
54871;SDS011;43914;57.680;11.982;2023-11-21T06:49:47;11.50;;;5.90;;
54871;SDS011;43914;57.680;11.982;2023-11-21T06:52:16;11.00;;;5.20;;
54871;SDS011;43914;57.680;11.982;2023-11-21T06:54:41;10.40;;;5.40;;
54871;SDS011;43914;57.680;11.982;2023-11-21T06:57:07;11.50;;;5.70;;
54871;SDS011;43914;57.680;11.982;2023-11-21T06:59:33;10.70;;;4.90;;
54871;SDS011;43914;57.680;11.982;2023-11-21T07:01:59;10.40;;;4.80;;
54871;SDS011;43914;57.680;11.982;2023-11-21T07:04:24;11.20;;;5.50;;
54871;SDS011;43914;57.680;11.982;2023-11-21T07:06:55;11.60;;;6.10;;
54871;SDS011;43914;57.680;11.982;2023-11-21T07:09:21;9.90;;;4.90;;
54871;SDS011;43914;57.680;11.982;2023-11-21T07:11:50;11.20;;;4.40;;
54871;SDS011;43914;57.680;11.982;2023-11-21T07:14:15;10.40;;;5.30;;
54871;SDS011;43914;57.680;11.982;2023-11-21T07:16:42;11.80;;;4.90;;
54871;SDS011;43914;57.680;11.982;2023-11-21T07:19:08;9.60;;;4.90;;
54871;SDS011;43914;57.680;11.982;2023-11-21T07:21:34;10.20;;;4.80;;
54871;SDS011;43914;57.680;11.982;2023-11-21T07:24:01;9.20;;;4.50;;
54871;SDS011;43914;57.680;11.982;2023-11-21T07:26:27;11.60;;;5.20;;
54871;SDS011;43914;57.680;11.982;2023-11-21T07:28:53;10.10;;;4.70;;
54871;SDS011;43914;57.680;11.982;2023-11-21T07:31:21;10.40;;;5.30;;
54871;SDS011;43914;57.680;11.982;2023-11-21T07:33:50;9.20;;;4.60;;
54871;SDS011;43914;57.680;11.982;2023-11-21T07:36:16;9.50;;;4.50;;
54871;SDS011;43914;57.680;11.982;2023-11-21T07:38:48;9.30;;;4.70;;
54871;SDS011;43914;57.680;11.982;2023-11-21T07:41:14;11.80;;;5.10;;
54871;SDS011;43914;57.680;11.982;2023-11-21T07:43:41;10.80;;;5.50;;
54871;SDS011;43914;57.680;11.982;2023-11-21T07:46:07;9.80;;;5.00;;
54871;SDS011;43914;57.680;11.982;2023-11-21T07:48:33;11.50;;;5.40;;
54871;SDS011;43914;57.680;11.982;2023-11-21T07:51:00;11.50;;;5.50;;
54871;SDS011;43914;57.680;11.982;2023-11-21T07:53:28;11.20;;;5.10;;
54871;SDS011;43914;57.680;11.982;2023-11-21T07:55:58;11.10;;;5.20;;
54871;SDS011;43914;57.680;11.982;2023-11-21T07:58:28;12.70;;;5.60;;
54871;SDS011;43914;57.680;11.982;2023-11-21T08:00:53;9.70;;;5.10;;
54871;SDS011;43914;57.680;11.982;2023-11-21T08:03:18;11.40;;;5.30;;
54871;SDS011;43914;57.680;11.982;2023-11-21T08:05:44;10.20;;;4.90;;
54871;SDS011;43914;57.680;11.982;2023-11-21T08:08:09;10.10;;;4.70;;
54871;SDS011;43914;57.680;11.982;2023-11-21T08:10:35;12.00;;;5.00;;
54871;SDS011;43914;57.680;11.982;2023-11-21T08:13:01;9.60;;;4.50;;
54871;SDS011;43914;57.680;11.982;2023-11-21T08:15:27;10.90;;;4.70;;
54871;SDS011;43914;57.680;11.982;2023-11-21T08:17:53;12.10;;;5.00;;
54871;SDS011;43914;57.680;11.982;2023-11-21T08:20:18;11.50;;;5.40;;
54871;SDS011;43914;57.680;11.982;2023-11-21T08:22:44;9.40;;;4.40;;
54871;SDS011;43914;57.680;11.982;2023-11-21T08:25:10;10.30;;;4.90;;
54871;SDS011;43914;57.680;11.982;2023-11-21T08:27:36;10.40;;;5.20;;
54871;SDS011;43914;57.680;11.982;2023-11-21T08:30:05;10.90;;;5.00;;
54871;SDS011;43914;57.680;11.982;2023-11-21T08:32:32;10.80;;;5.10;;
54871;SDS011;43914;57.680;11.982;2023-11-21T08:35:01;11.30;;;5.20;;
54871;SDS011;43914;57.680;11.982;2023-11-21T08:37:26;12.20;;;4.90;;
54871;SDS011;43914;57.680;11.982;2023-11-21T08:39:52;10.80;;;5.30;;
54871;SDS011;43914;57.680;11.982;2023-11-21T08:42:18;12.40;;;5.80;;
54871;SDS011;43914;57.680;11.982;2023-11-21T08:44:44;11.40;;;5.20;;
54871;SDS011;43914;57.680;11.982;2023-11-21T08:47:10;11.00;;;5.10;;
54871;SDS011;43914;57.680;11.982;2023-11-21T08:49:36;12.00;;;5.50;;
54871;SDS011;43914;57.680;11.982;2023-11-21T08:52:03;11.40;;;5.40;;
54871;SDS011;43914;57.680;11.982;2023-11-21T08:54:30;11.70;;;5.10;;
54871;SDS011;43914;57.680;11.982;2023-11-21T08:56:56;10.90;;;5.50;;
54871;SDS011;43914;57.680;11.982;2023-11-21T08:59:24;11.10;;;5.60;;
54871;SDS011;43914;57.680;11.982;2023-11-21T09:01:50;13.10;;;5.80;;
54871;SDS011;43914;57.680;11.982;2023-11-21T09:04:16;12.10;;;5.90;;
54871;SDS011;43914;57.680;11.982;2023-11-21T09:06:42;11.60;;;5.30;;
54871;SDS011;43914;57.680;11.982;2023-11-21T09:09:08;11.50;;;5.70;;
54871;SDS011;43914;57.680;11.982;2023-11-21T09:11:35;12.00;;;5.20;;
54871;SDS011;43914;57.680;11.982;2023-11-21T09:14:01;11.10;;;5.90;;
54871;SDS011;43914;57.680;11.982;2023-11-21T09:16:28;12.90;;;5.90;;
54871;SDS011;43914;57.680;11.982;2023-11-21T09:18:54;12.00;;;5.60;;
54871;SDS011;43914;57.680;11.982;2023-11-21T09:21:19;11.70;;;4.70;;
54871;SDS011;43914;57.680;11.982;2023-11-21T09:23:45;11.40;;;5.70;;
54871;SDS011;43914;57.680;11.982;2023-11-21T09:26:11;14.10;;;5.60;;
54871;SDS011;43914;57.680;11.982;2023-11-21T09:28:36;12.30;;;5.50;;
54871;SDS011;43914;57.680;11.982;2023-11-21T09:31:05;10.50;;;5.00;;
54871;SDS011;43914;57.680;11.982;2023-11-21T09:33:34;10.40;;;4.70;;
54871;SDS011;43914;57.680;11.982;2023-11-21T09:35:59;11.30;;;5.30;;
54871;SDS011;43914;57.680;11.982;2023-11-21T09:38:25;9.90;;;5.00;;
54871;SDS011;43914;57.680;11.982;2023-11-21T09:40:50;10.50;;;5.10;;
54871;SDS011;43914;57.680;11.982;2023-11-21T09:43:18;9.60;;;4.30;;
54871;SDS011;43914;57.680;11.982;2023-11-21T09:45:47;11.60;;;4.90;;
54871;SDS011;43914;57.680;11.982;2023-11-21T09:48:18;12.50;;;5.00;;
54871;SDS011;43914;57.680;11.982;2023-11-21T09:50:45;12.30;;;5.40;;
54871;SDS011;43914;57.680;11.982;2023-11-21T09:55:50;10.10;;;4.90;;
54871;SDS011;43914;57.680;11.982;2023-11-21T09:58:17;11.60;;;5.40;;
54871;SDS011;43914;57.680;11.982;2023-11-21T10:00:47;9.10;;;4.10;;
54871;SDS011;43914;57.680;11.982;2023-11-21T10:03:17;12.10;;;5.10;;
54871;SDS011;43914;57.680;11.982;2023-11-21T10:05:43;11.60;;;4.70;;
54871;SDS011;43914;57.680;11.982;2023-11-21T10:08:11;10.40;;;4.80;;
54871;SDS011;43914;57.680;11.982;2023-11-21T10:10:38;9.80;;;4.20;;
54871;SDS011;43914;57.680;11.982;2023-11-21T10:13:13;9.30;;;4.70;;
54871;SDS011;43914;57.680;11.982;2023-11-21T10:15:41;10.10;;;4.20;;
54871;SDS011;43914;57.680;11.982;2023-11-21T10:18:13;9.20;;;3.80;;
54871;SDS011;43914;57.680;11.982;2023-11-21T10:20:44;8.50;;;4.00;;
54871;SDS011;43914;57.680;11.982;2023-11-21T10:23:17;9.90;;;4.80;;
54871;SDS011;43914;57.680;11.982;2023-11-21T10:25:52;8.70;;;4.30;;
54871;SDS011;43914;57.680;11.982;2023-11-21T10:28:18;9.60;;;4.00;;
54871;SDS011;43914;57.680;11.982;2023-11-21T10:30:45;8.10;;;4.00;;
54871;SDS011;43914;57.680;11.982;2023-11-21T10:33:11;9.40;;;4.30;;
54871;SDS011;43914;57.680;11.982;2023-11-21T10:38:16;9.10;;;3.80;;
54871;SDS011;43914;57.680;11.982;2023-11-21T10:40:43;8.10;;;3.90;;
54871;SDS011;43914;57.680;11.982;2023-11-21T10:43:11;10.20;;;4.50;;
54871;SDS011;43914;57.680;11.982;2023-11-21T10:45:38;8.80;;;4.10;;
54871;SDS011;43914;57.680;11.982;2023-11-21T10:48:07;9.10;;;3.70;;
54871;SDS011;43914;57.680;11.982;2023-11-21T10:50:35;10.00;;;4.40;;
54871;SDS011;43914;57.680;11.982;2023-11-21T10:53:03;9.10;;;3.60;;
54871;SDS011;43914;57.680;11.982;2023-11-21T10:55:30;7.80;;;3.80;;
54871;SDS011;43914;57.680;11.982;2023-11-21T10:58:06;8.50;;;3.30;;
54871;SDS011;43914;57.680;11.982;2023-11-21T11:00:35;10.00;;;3.70;;
54871;SDS011;43914;57.680;11.982;2023-11-21T11:03:02;9.60;;;3.80;;
54871;SDS011;43914;57.680;11.982;2023-11-21T11:05:29;9.50;;;4.10;;
54871;SDS011;43914;57.680;11.982;2023-11-21T11:08:06;8.90;;;3.80;;
54871;SDS011;43914;57.680;11.982;2023-11-21T11:10:34;8.10;;;3.70;;
54871;SDS011;43914;57.680;11.982;2023-11-21T11:13:01;6.90;;;2.80;;
54871;SDS011;43914;57.680;11.982;2023-11-21T11:15:27;7.50;;;3.40;;
54871;SDS011;43914;57.680;11.982;2023-11-21T11:17:53;9.80;;;4.00;;
54871;SDS011;43914;57.680;11.982;2023-11-21T11:20:23;10.10;;;3.90;;
54871;SDS011;43914;57.680;11.982;2023-11-21T11:25:53;7.80;;;3.30;;
54871;SDS011;43914;57.680;11.982;2023-11-21T11:34:06;7.70;;;3.30;;
54871;SDS011;43914;57.680;11.982;2023-11-21T11:36:49;9.10;;;3.60;;
54871;SDS011;43914;57.680;11.982;2023-11-21T11:39:35;8.80;;;3.90;;
54871;SDS011;43914;57.680;11.982;2023-11-21T11:42:12;8.10;;;3.60;;
54871;SDS011;43914;57.680;11.982;2023-11-21T11:47:18;7.70;;;3.30;;
54871;SDS011;43914;57.680;11.982;2023-11-21T11:50:02;8.00;;;3.00;;
54871;SDS011;43914;57.680;11.982;2023-11-21T11:52:33;7.00;;;2.90;;
54871;SDS011;43914;57.680;11.982;2023-11-21T11:55:11;8.30;;;3.50;;
54871;SDS011;43914;57.680;11.982;2023-11-21T11:57:44;7.40;;;3.30;;
54871;SDS011;43914;57.680;11.982;2023-11-21T12:00:22;9.40;;;3.60;;
54871;SDS011;43914;57.680;11.982;2023-11-21T12:03:03;9.20;;;3.70;;
54871;SDS011;43914;57.680;11.982;2023-11-21T12:05:31;8.20;;;3.10;;
54871;SDS011;43914;57.680;11.982;2023-11-21T12:08:00;7.80;;;3.50;;
54871;SDS011;43914;57.680;11.982;2023-11-21T12:10:32;7.20;;;3.10;;
54871;SDS011;43914;57.680;11.982;2023-11-21T12:13:09;7.60;;;2.70;;
54871;SDS011;43914;57.680;11.982;2023-11-21T12:15:37;8.70;;;3.40;;
54871;SDS011;43914;57.680;11.982;2023-11-21T12:18:04;8.00;;;2.80;;
54871;SDS011;43914;57.680;11.982;2023-11-21T12:20:30;8.70;;;3.70;;
54871;SDS011;43914;57.680;11.982;2023-11-21T12:22:57;8.10;;;3.40;;
54871;SDS011;43914;57.680;11.982;2023-11-21T12:25:27;8.00;;;3.30;;
54871;SDS011;43914;57.680;11.982;2023-11-21T12:27:59;8.70;;;3.20;;
54871;SDS011;43914;57.680;11.982;2023-11-21T12:30:26;8.40;;;3.40;;
54871;SDS011;43914;57.680;11.982;2023-11-21T12:32:55;7.60;;;3.20;;
54871;SDS011;43914;57.680;11.982;2023-11-21T12:35:24;7.80;;;3.40;;
54871;SDS011;43914;57.680;11.982;2023-11-21T12:37:52;8.10;;;3.30;;
54871;SDS011;43914;57.680;11.982;2023-11-21T12:40:19;8.70;;;3.80;;
54871;SDS011;43914;57.680;11.982;2023-11-21T12:42:48;7.80;;;3.40;;
54871;SDS011;43914;57.680;11.982;2023-11-21T12:45:19;8.80;;;3.40;;
54871;SDS011;43914;57.680;11.982;2023-11-21T12:47:46;7.60;;;3.50;;
54871;SDS011;43914;57.680;11.982;2023-11-21T12:50:14;9.90;;;3.70;;
54871;SDS011;43914;57.680;11.982;2023-11-21T12:52:41;7.60;;;3.00;;
54871;SDS011;43914;57.680;11.982;2023-11-21T12:55:09;8.30;;;3.20;;
54871;SDS011;43914;57.680;11.982;2023-11-21T12:57:40;8.40;;;3.30;;
54871;SDS011;43914;57.680;11.982;2023-11-21T13:00:08;7.60;;;3.10;;
54871;SDS011;43914;57.680;11.982;2023-11-21T13:02:38;8.60;;;4.00;;
54871;SDS011;43914;57.680;11.982;2023-11-21T13:05:07;7.70;;;3.10;;
54871;SDS011;43914;57.680;11.982;2023-11-21T13:07:44;8.10;;;3.70;;
54871;SDS011;43914;57.680;11.982;2023-11-21T13:10:15;7.90;;;2.80;;
54871;SDS011;43914;57.680;11.982;2023-11-21T13:12:45;7.20;;;3.00;;
54871;SDS011;43914;57.680;11.982;2023-11-21T13:15:16;9.10;;;3.60;;
54871;SDS011;43914;57.680;11.982;2023-11-21T13:17:43;8.80;;;3.60;;
54871;SDS011;43914;57.680;11.982;2023-11-21T13:20:12;7.80;;;3.00;;
54871;SDS011;43914;57.680;11.982;2023-11-21T13:22:51;7.40;;;3.00;;
54871;SDS011;43914;57.680;11.982;2023-11-21T13:25:28;7.80;;;3.40;;
54871;SDS011;43914;57.680;11.982;2023-11-21T13:27:54;7.80;;;2.80;;
54871;SDS011;43914;57.680;11.982;2023-11-21T13:30:20;7.50;;;3.00;;
54871;SDS011;43914;57.680;11.982;2023-11-21T13:32:51;9.10;;;2.40;;
54871;SDS011;43914;57.680;11.982;2023-11-21T13:35:18;7.00;;;2.70;;
54871;SDS011;43914;57.680;11.982;2023-11-21T13:37:55;8.20;;;2.70;;
54871;SDS011;43914;57.680;11.982;2023-11-21T13:40:22;7.00;;;2.80;;
54871;SDS011;43914;57.680;11.982;2023-11-21T13:42:55;6.80;;;2.40;;
54871;SDS011;43914;57.680;11.982;2023-11-21T13:45:24;6.40;;;2.40;;
54871;SDS011;43914;57.680;11.982;2023-11-21T13:47:51;7.10;;;2.80;;
54871;SDS011;43914;57.680;11.982;2023-11-21T13:50:22;7.00;;;2.70;;
54871;SDS011;43914;57.680;11.982;2023-11-21T13:52:53;8.30;;;2.70;;
54871;SDS011;43914;57.680;11.982;2023-11-21T13:55:19;9.60;;;3.10;;
54871;SDS011;43914;57.680;11.982;2023-11-21T13:57:47;6.80;;;2.60;;
54871;SDS011;43914;57.680;11.982;2023-11-21T14:00:17;7.20;;;2.90;;
54871;SDS011;43914;57.680;11.982;2023-11-21T14:03:02;7.10;;;2.90;;
54871;SDS011;43914;57.680;11.982;2023-11-21T14:05:33;6.70;;;2.60;;
54871;SDS011;43914;57.680;11.982;2023-11-21T14:07:59;7.20;;;2.80;;
54871;SDS011;43914;57.680;11.982;2023-11-21T14:10:32;8.00;;;3.00;;
54871;SDS011;43914;57.680;11.982;2023-11-21T14:13:11;7.80;;;3.10;;
54871;SDS011;43914;57.680;11.982;2023-11-21T14:15:45;7.50;;;2.80;;
54871;SDS011;43914;57.680;11.982;2023-11-21T14:18:12;8.40;;;3.00;;
54871;SDS011;43914;57.680;11.982;2023-11-21T14:20:43;7.90;;;2.80;;
54871;SDS011;43914;57.680;11.982;2023-11-21T14:23:09;7.70;;;2.60;;
54871;SDS011;43914;57.680;11.982;2023-11-21T14:25:35;7.20;;;2.60;;
54871;SDS011;43914;57.680;11.982;2023-11-21T14:28:02;6.50;;;2.40;;
54871;SDS011;43914;57.680;11.982;2023-11-21T14:30:30;6.80;;;2.60;;
54871;SDS011;43914;57.680;11.982;2023-11-21T14:32:58;6.80;;;2.60;;
54871;SDS011;43914;57.680;11.982;2023-11-21T14:35:26;5.80;;;2.10;;
54871;SDS011;43914;57.680;11.982;2023-11-21T14:37:52;6.50;;;2.50;;
54871;SDS011;43914;57.680;11.982;2023-11-21T14:40:18;7.30;;;2.80;;
54871;SDS011;43914;57.680;11.982;2023-11-21T14:42:49;7.50;;;2.60;;
54871;SDS011;43914;57.680;11.982;2023-11-21T14:45:17;7.40;;;2.40;;